Time;durP1;ratioP1;P1;durP2;ratioP2;P2;SDS_P1;SDS_P2;PMS_P1;PMS_P2;Temp;Humidity;BMP_temperature;BMP_pressure;BME280_temperature;BME280_humidity;BME280_pressure;Samples;Min_cycle;Max_cycle;Signal;HPM_P1;HPM_P2
2022/03/28 02:08:53;;;;;;;;;;;;;;;7.60;67.86;100320.59;4999894;28;1202;-96
2022/03/28 02:11:20;;;;;;;;;;;;;;;7.60;67.57;100317.91;5002431;28;1052;-96
2022/03/28 02:13:47;;;;;;;;;;;;;;;7.59;67.59;100313.59;5002246;28;1024;-96
2022/03/28 02:16:15;;;;;;;;;;;;;;;7.59;67.70;100297.50;5002046;28;1891;-96
2022/03/28 02:18:44;;;;;;;;;;;;;;;7.57;67.81;100309.47;5001726;28;1315;-96
2022/03/28 02:21:11;;;;;;;;;;;;;;;7.57;67.29;100296.88;5001054;28;1060;-96
2022/03/28 02:23:37;;;;;;;;;;;;;;;7.56;66.91;100300.59;5000863;28;1163;-96
2022/03/28 03:12:56;;;;;;;;;;;;;;;7.47;66.26;100216.06;4999372;28;692;-96
2022/03/28 03:52:50;;;;;;;;;;;;;;;7.51;68.60;100134.22;4995776;28;1545;-96
2022/03/28 04:09:09;;;;;;;;;;;;;;;7.48;68.50;100116.72;4985571;28;1626;-96
2022/03/28 04:11:49;;;;;;;;;;;;;;;7.48;68.64;100116.72;4978929;28;1585;-96
2022/03/28 04:19:50;;;;;;;;;;;;;;;7.46;68.88;100101.88;4991438;28;1336;-96
2022/03/28 04:41:54;;;;;;;;;;;;;;;7.42;68.42;100047.06;4991157;28;941;-96
2022/03/28 04:44:36;;;;;;;;;;;;;;;7.42;68.07;100044.41;4981102;28;1655;-96
2022/03/28 04:50:25;;;;;;;;;;;;;;;7.40;67.54;100009.75;4994946;28;680;-96
2022/03/28 04:53:20;;;;;;;;;;;;;;;7.39;68.02;100000.09;4995666;28;621;-96
2022/03/28 05:08:50;;;;;;;;;;;;;;;7.37;68.74;100006.69;4994221;28;1400;-96
2022/03/28 05:18:06;;;;;;;;;;;;;;;7.35;68.57;100019.47;4993047;28;1884;-96
2022/03/28 05:21:07;;;;;;;;;;;;;;;7.35;68.87;100027.50;4984910;28;689;-96
2022/03/28 05:38:42;;;;;;;;;;;;;;;7.31;68.34;99997.63;4998258;28;879;-96
2022/03/28 05:46:52;;;;;;;;;;;;;;;7.31;68.42;99991.47;4995348;28;1293;-96
2022/03/28 05:49:27;;;;;;;;;;;;;;;7.29;68.34;99988.97;4997869;28;926;-96
2022/03/28 05:51:57;;;;;;;;;;;;;;;7.30;68.28;99985.28;4995842;28;1572;-96
2022/03/28 05:59:54;;;;;;;;;;;;;;;7.27;68.38;99981.19;4989674;28;1205;-96
2022/03/28 06:02:29;;;;;;;;;;;;;;;7.28;68.17;99968.59;4996555;28;2027;-96
2022/03/28 06:05:07;;;;;;;;;;;;;;;7.28;68.46;99957.88;4979721;28;1601;-96
2022/03/28 06:07:38;;;;;;;;;;;;;;;7.28;68.04;99972.09;4994139;28;1264;-96
2022/03/28 06:10:22;;;;;;;;;;;;;;;7.27;67.64;99953.56;4997575;28;1246;-96
2022/03/28 06:13:01;;;;;;;;;;;;;;;7.27;67.59;99969.66;4996943;28;1443;-96
2022/03/28 06:35:46;;;;;;;;;;;;;;;7.20;67.84;99913.41;5236300;23;2101;-96
2022/03/28 06:38:13;;;;;;;;;;;;;;;7.20;67.58;99920.63;5292949;23;3520;-96
2022/03/28 15:44:01;;;;;;;;;;;;;;;8.23;68.65;100046.44;5550634;23;2043;-96
2022/03/28 16:21:43;;;;;;;;;;;;;;;8.33;68.93;100062.09;4962338;29;1343;-92
2022/03/28 16:27:43;;;;;;;;;;;;;;;8.34;68.85;100072.59;4997302;28;1605;-96
2022/03/28 16:30:36;;;;;;;;;;;;;;;8.35;68.83;100065.34;4997965;28;718;-96
2022/03/28 16:33:28;;;;;;;;;;;;;;;8.35;69.07;100065.34;4999225;28;712;-96
2022/03/28 16:36:20;;;;;;;;;;;;;;;8.36;69.19;100070.53;5431124;23;3777;-96
2022/03/28 16:39:11;;;;;;;;;;;;;;;8.36;69.09;100083.94;5013677;28;632;-96
2022/03/28 16:42:07;;;;;;;;;;;;;;;8.36;68.95;100075.06;5010071;28;1252;-96
2022/03/28 16:45:01;;;;;;;;;;;;;;;8.37;69.21;100079.41;5032859;28;659;-96
2022/03/28 18:23:24;;;;;;;;;;;;;;;8.40;69.25;100171.03;5013578;28;1729;-96
2022/03/28 18:46:13;;;;;;;;;;;;;;;8.36;69.15;100183.22;5017908;28;965;-96
2022/03/28 19:03:06;;;;;;;;;;;;;;;8.33;69.21;100201.63;5007726;28;1261;-96
2022/03/28 19:11:10;;;;;;;;;;;;;;;8.30;69.27;100210.91;5013925;28;962;-96
2022/03/28 19:19:04;;;;;;;;;;;;;;;8.27;69.36;100216.72;5011300;28;1953;-96
2022/03/28 19:21:34;;;;;;;;;;;;;;;8.28;69.38;100225.56;5012245;28;1307;-96
2022/03/28 19:24:15;;;;;;;;;;;;;;;8.27;69.22;100229.31;5014438;28;843;-96
2022/03/28 19:26:48;;;;;;;;;;;;;;;8.27;69.51;100234.66;5003283;28;1100;-96
2022/03/28 19:32:00;;;;;;;;;;;;;;;8.24;69.40;100235.91;4998870;28;1251;-96
2022/03/28 19:34:32;;;;;;;;;;;;;;;8.25;69.30;100239.41;4992458;28;838;-96
2022/03/28 19:37:01;;;;;;;;;;;;;;;8.23;69.52;100233.44;4992284;28;1973;-96
2022/03/28 19:39:30;;;;;;;;;;;;;;;8.21;69.34;100244.38;4987671;28;1453;-96
2022/03/28 19:41:58;;;;;;;;;;;;;;;8.21;69.17;100241.72;4993447;28;1210;-96
2022/03/28 19:44:25;;;;;;;;;;;;;;;8.20;69.31;100245.41;5024978;28;1060;-96
2022/03/28 19:46:53;;;;;;;;;;;;;;;8.20;69.40;100245.41;4992367;28;1333;-96
2022/03/28 19:49:20;;;;;;;;;;;;;;;8.18;69.30;100240.28;5024734;28;1226;-96
2022/03/28 19:51:50;;;;;;;;;;;;;;;8.18;69.22;100245.63;5009152;28;961;-96
2022/03/28 19:54:20;;;;;;;;;;;;;;;8.17;68.99;100235.09;5009177;28;869;-96
2022/03/28 19:56:48;;;;;;;;;;;;;;;8.16;69.19;100242.31;5015912;28;1595;-96
2022/03/28 19:59:14;;;;;;;;;;;;;;;8.15;69.01;100251.41;4991198;28;1887;-96
2022/03/28 20:01:41;;;;;;;;;;;;;;;8.15;68.89;100248.75;4989973;28;1252;-96
2022/03/28 20:04:16;;;;;;;;;;;;;;;8.13;69.08;100253.47;4996598;28;1198;-96
2022/03/28 20:06:43;;;;;;;;;;;;;;;8.13;69.04;100256.16;5003651;28;1083;-96
2022/03/28 20:09:10;;;;;;;;;;;;;;;8.12;68.71;100262.56;4999937;28;1205;-96
2022/03/28 20:11:38;;;;;;;;;;;;;;;8.11;68.93;100268.94;4990815;28;1354;-96
2022/03/28 20:14:07;;;;;;;;;;;;;;;8.10;68.85;100267.31;4990475;28;1005;-96
2022/03/28 20:16:35;;;;;;;;;;;;;;;8.09;68.98;100262.16;4989682;28;1308;-96
2022/03/28 20:19:02;;;;;;;;;;;;;;;8.08;69.06;100265.88;4990974;28;1918;-96
2022/03/28 20:21:32;;;;;;;;;;;;;;;8.07;68.77;100266.91;5007291;28;1517;-96
2022/03/28 20:24:01;;;;;;;;;;;;;;;8.06;68.97;100263.41;4988443;28;1361;-96
2022/03/28 20:26:29;;;;;;;;;;;;;;;8.05;68.77;100253.69;4988879;28;1221;-96
2022/03/28 20:28:56;;;;;;;;;;;;;;;8.05;68.76;100260.94;5007432;28;926;-96
2022/03/28 20:31:25;;;;;;;;;;;;;;;8.04;68.95;100259.28;4977023;28;1575;-96
2022/03/28 20:33:52;;;;;;;;;;;;;;;8.02;69.03;100256.81;4969256;28;1341;-96
2022/03/28 20:36:19;;;;;;;;;;;;;;;8.03;68.51;100263.00;4968550;28;1297;-96
2022/03/28 20:38:46;;;;;;;;;;;;;;;8.01;69.01;100263.22;4969321;28;1910;-96
2022/03/28 20:41:14;;;;;;;;;;;;;;;8.00;68.66;100264.25;4967845;28;1368;-96
2022/03/28 20:43:42;;;;;;;;;;;;;;;8.00;68.55;100271.47;4967766;28;1319;-96
2022/03/28 20:46:10;;;;;;;;;;;;;;;7.98;68.64;100269.00;4968078;28;1391;-96
2022/03/28 20:48:38;;;;;;;;;;;;;;;7.96;68.77;100269.19;4969870;28;1052;-96
2022/03/28 20:51:11;;;;;;;;;;;;;;;7.84;68.58;100257.47;4990252;28;1491;-96
2022/03/28 20:53:39;;;;;;;;;;;;;;;7.95;68.85;100277.47;4988079;28;1422;-96
2022/03/28 20:56:07;;;;;;;;;;;;;;;7.94;68.73;100279.31;5004770;28;853;-96
2022/03/28 20:58:34;;;;;;;;;;;;;;;7.94;68.59;100283.84;4988904;28;1910;-96
2022/03/28 21:01:02;;;;;;;;;;;;;;;7.93;68.66;100274.16;5002826;28;1298;-96
2022/03/28 21:03:29;;;;;;;;;;;;;;;7.91;68.53;100274.38;4988168;28;1411;-96
2022/03/28 21:05:57;;;;;;;;;;;;;;;7.90;68.45;100278.06;4980530;28;1375;-96
2022/03/28 21:08:24;;;;;;;;;;;;;;;7.89;68.37;100279.13;4983877;28;1202;-96
2022/03/28 21:10:53;;;;;;;;;;;;;;;7.89;68.49;100278.31;4984577;28;948;-96
2022/03/28 21:13:24;;;;;;;;;;;;;;;7.87;68.55;100277.69;4968855;28;1294;-96
2022/03/28 21:15:53;;;;;;;;;;;;;;;7.86;68.21;100276.03;4987327;28;1403;-96
2022/03/28 21:18:24;;;;;;;;;;;;;;;7.86;68.29;100276.03;5006217;28;1957;-96
2022/03/28 21:20:53;;;;;;;;;;;;;;;7.84;68.36;100278.09;5004589;28;1627;-96
2022/03/28 21:23:23;;;;;;;;;;;;;;;7.83;68.66;100276.47;5004391;28;1161;-96
2022/03/28 21:25:50;;;;;;;;;;;;;;;7.83;68.68;100279.13;5004075;28;968;-96
2022/03/28 21:28:17;;;;;;;;;;;;;;;7.81;68.40;100282.00;4990793;28;1561;-96
2022/03/28 21:30:44;;;;;;;;;;;;;;;7.81;68.75;100282.00;4985771;28;1216;-96
2022/03/28 21:33:11;;;;;;;;;;;;;;;7.79;68.69;100285.94;5002828;28;1473;-96
2022/03/28 21:35:39;;;;;;;;;;;;;;;7.79;68.72;100286.75;4977436;28;1719;-96
2022/03/28 21:38:06;;;;;;;;;;;;;;;7.78;68.72;100286.97;5003220;28;1923;-96
2022/03/28 21:40:33;;;;;;;;;;;;;;;7.75;68.58;100282.84;4984047;28;1897;-96
2022/03/28 21:43:00;;;;;;;;;;;;;;;7.75;68.53;100285.53;5007653;28;1400;-96
2022/03/28 21:45:29;;;;;;;;;;;;;;;7.73;68.81;100282.22;4985078;28;1461;-96
2022/03/28 21:47:56;;;;;;;;;;;;;;;7.73;68.51;100283.06;4980147;28;1688;-96
2022/03/28 21:50:23;;;;;;;;;;;;;;;7.72;68.82;100286.75;4986840;28;1571;-96
2022/03/28 21:52:50;;;;;;;;;;;;;;;7.71;68.88;100286.97;4966880;28;1218;-96
2022/03/28 21:55:17;;;;;;;;;;;;;;;7.70;68.58;100282.63;4968398;28;1265;-96
2022/03/28 21:57:43;;;;;;;;;;;;;;;7.68;68.91;100282.84;4979900;28;1974;-96
2022/03/28 22:00:11;;;;;;;;;;;;;;;7.68;68.62;100292.75;5006221;28;1943;-96
2022/03/28 22:02:38;;;;;;;;;;;;;;;7.66;68.87;100282.22;5001135;28;1427;-96
2022/03/28 22:05:06;;;;;;;;;;;;;;;7.65;68.50;100287.81;4990158;28;1345;-96
2022/03/28 22:07:33;;;;;;;;;;;;;;;7.65;68.66;100287.81;4989269;28;1260;-96
2022/03/28 22:10:00;;;;;;;;;;;;;;;7.62;68.88;100289.06;5006895;28;906;-96
2022/03/28 22:12:27;;;;;;;;;;;;;;;7.61;68.92;100291.91;5005491;28;1236;-96
2022/03/28 22:14:56;;;;;;;;;;;;;;;7.60;68.90;100296.47;5004061;28;1408;-96
2022/03/28 22:17:28;;;;;;;;;;;;;;;7.58;68.85;100295.84;5004105;28;1320;-96
2022/03/28 22:19:57;;;;;;;;;;;;;;;7.58;68.88;100284.28;5002607;28;1977;-96
2022/03/28 22:22:24;;;;;;;;;;;;;;;7.57;68.53;100288.00;5016258;28;1428;-96
2022/03/28 22:24:51;;;;;;;;;;;;;;;7.55;68.92;100284.72;4986693;28;1342;-96
2022/03/28 22:27:18;;;;;;;;;;;;;;;7.54;68.46;100281.22;4982950;28;1444;-96
2022/03/28 22:29:45;;;;;;;;;;;;;;;7.52;68.85;100283.25;4986757;28;1451;-96
2022/03/28 22:32:11;;;;;;;;;;;;;;;7.51;68.87;100279.75;4986626;28;1312;-96
2022/03/28 22:34:38;;;;;;;;;;;;;;;7.50;68.81;100278.13;4984564;28;1621;-96
2022/03/28 22:37:05;;;;;;;;;;;;;;;7.48;68.71;100274.81;4992959;28;1272;-96
2022/03/28 22:39:32;;;;;;;;;;;;;;;7.48;68.45;100284.72;5001625;28;1891;-96
2022/03/28 22:41:59;;;;;;;;;;;;;;;7.47;68.95;100280.38;4993366;28;1414;-96
2022/03/28 22:44:28;;;;;;;;;;;;;;;7.45;68.61;100275.22;4986700;28;1482;-96
2022/03/28 22:46:55;;;;;;;;;;;;;;;7.43;68.70;100273.78;4985514;28;1198;-96
2022/03/28 22:49:23;;;;;;;;;;;;;;;7.42;68.99;100272.16;4986402;28;1222;-96
2022/03/28 22:51:51;;;;;;;;;;;;;;;7.41;68.59;100274.00;4984600;28;1428;-96
2022/03/28 22:54:18;;;;;;;;;;;;;;;7.40;68.91;100271.50;4981756;28;1391;-96
2022/03/28 22:56:45;;;;;;;;;;;;;;;7.38;68.79;100268.22;4991299;28;1264;-96
2022/03/28 22:59:12;;;;;;;;;;;;;;;7.37;68.63;100267.38;5002520;28;1914;-96
2022/03/28 23:01:39;;;;;;;;;;;;;;;7.36;68.92;100272.97;5005613;28;1599;-96
2022/03/28 23:04:06;;;;;;;;;;;;;;;7.33;68.80;100263.47;4985300;28;1293;-96
2022/03/28 23:06:32;;;;;;;;;;;;;;;7.32;68.56;100266.34;4983777;28;1822;-96
2022/03/28 23:09:01;;;;;;;;;;;;;;;7.33;68.78;100268.03;4986122;28;1417;-96
2022/03/28 23:11:28;;;;;;;;;;;;;;;7.30;68.71;100266.56;5001303;28;1606;-96
2022/03/28 23:13:55;;;;;;;;;;;;;;;7.28;68.65;100263.25;5001756;28;1378;-96
2022/03/28 23:16:22;;;;;;;;;;;;;;;7.26;68.55;100260.81;4985057;28;1409;-96
2022/03/28 23:18:49;;;;;;;;;;;;;;;7.25;68.41;100269.84;4986125;28;2043;-96
2022/03/28 23:21:16;;;;;;;;;;;;;;;7.23;68.84;100258.50;4984697;28;1421;-96
2022/03/28 23:23:43;;;;;;;;;;;;;;;7.21;68.68;100255.22;4984818;28;1522;-96
2022/03/28 23:26:10;;;;;;;;;;;;;;;7.20;68.78;100250.88;4998896;28;892;-96
2022/03/28 23:28:37;;;;;;;;;;;;;;;7.20;68.54;100255.41;4986532;28;1203;-96
2022/03/28 23:31:04;;;;;;;;;;;;;;;7.17;68.42;100248.63;4986138;28;1435;-96
2022/03/28 23:33:32;;;;;;;;;;;;;;;7.16;68.54;100252.34;4986471;28;1216;-96
2022/03/28 23:35:59;;;;;;;;;;;;;;;7.17;68.79;100251.28;4985555;28;1383;-96
2022/03/28 23:38:27;;;;;;;;;;;;;;;7.15;68.64;100252.56;4986908;28;1918;-96
2022/03/28 23:40:55;;;;;;;;;;;;;;;7.13;68.70;100249.25;4973157;28;1678;-96
2022/03/28 23:43:22;;;;;;;;;;;;;;;7.11;68.58;100246.75;4966841;28;1291;-96
2022/03/28 23:45:49;;;;;;;;;;;;;;;7.10;68.68;100253.16;4966611;28;1533;-96
2022/03/28 23:48:16;;;;;;;;;;;;;;;7.10;68.62;100255.00;4967595;28;1190;-96
2022/03/28 23:50:42;;;;;;;;;;;;;;;7.07;68.33;100252.75;4976013;28;1229;-96
2022/03/28 23:53:09;;;;;;;;;;;;;;;7.05;68.65;100253.75;5003483;28;1252;-96
2022/03/28 23:55:36;;;;;;;;;;;;;;;7.05;68.59;100252.94;4999431;28;1326;-96
2022/03/28 23:58:06;;;;;;;;;;;;;;;7.04;68.50;100240.59;4987606;28;1413;-96
